KMSP/MSP METAR and TAF weather

Enter ICAO airport designator
Station Type Date Time Source
KMSP METAR 2021/08/05 03:53 UTC NOAA

KMSP 050353Z 16006KT 10SM SCT150 SCT200 23/15 A3002 RMK AO2 SLP160 T02330150


Station Type Date Time Source
KMSP Decoded METAR 2021/08/05 03:53 UTC NOAA

MINNEAPOLIS-ST PAUL INTERNATIONAL , MN, United States (KMSP) 44-52N 93-13W 265M
Aug 04, 2021 - 11:53 PM EDT / 2021.08.05 0353 UTC
Wind: from the SSE (160 degrees) at 7 MPH (6 KT):0
Visibility: 10 mile(s):0
Sky conditions: partly cloudy
Temperature: 73.9 F (23.3 C)
Dew Point: 59.0 F (15.0 C)
Relative Humidity: 59%
Pressure (altimeter): 30.02 in. Hg (1016 hPa)
ob: KMSP 050353Z 16006KT 10SM SCT150 SCT200 23/15 A3002 RMK AO2 SLP160 T02330150
cycle: 4

Station Type Date Time Source
KMSP TAF 2021/08/05 02:18 UTC NOAA

TAF
AMD KMSP 050217Z 0502/0606 18007KT P6SM BKN100
FM051200 17007KT P6SM -SHRA BKN080
FM051600 19008KT P6SM -SHRA OVC040
FM052000 19009KT P6SM BKN040 PROB30 0523/0602 4SM TSRA OVC040CB

Example: see airport list